»·PEaware :: N3298S KPOC-15AZ

N3298S :: KPOC-15AZ

FLIGHT INFORMATION

Flight Status: Arrived
Operator: Privately registered:
United States
More flights under this callsign
Pilot: Todd P. (5750)
Aircraft: BEECH AIRCRAFT A90-E90 KING AIR
(BE9L)
More flights by this aircraft type
Origin: KPOC Brackett
United States
Destination: 15AZ Quail Mesa
United States
More flights between these airports :: More routes between these airports
Route: +PRADO V16 BLH
File this flight plan on PilotEdge
Remarks:
Altitude:
(Current/Filed)
19,000ft
Speed:
(Current/Filed)
200kts
Departed: 03-Feb-15 07:00 PM
Arrived: 03-Feb-15 07:54 PM
Distance/Time
Traveled:
166nm/0:54
Distance/Time
To Go:
Arrived

Flight Plot

Page will automatically refresh every two minutes.


Map Options




Map Legend


Flown Route
Filed Route
Departure Airport
Arrival Airport
Navaid (VOR, NDB)
Fix

Horizontal Profiles

Position Reports

Time Latitude Longitude Heading Altitude Ground
Speed
03-Feb-15 18:38 34.090049 -117.783313 283 1015ft 0kts
03-Feb-15 18:39 34.090049 -117.783313 283 1015ft 0kts
03-Feb-15 18:40 34.090049 -117.783313 283 1015ft 0kts
03-Feb-15 18:41 34.090049 -117.783313 283 1015ft 0kts
03-Feb-15 18:42 34.090049 -117.783313 283 1015ft 0kts
03-Feb-15 18:43 34.090049 -117.783313 283 1015ft 0kts
03-Feb-15 18:44 34.090049 -117.783313 283 1015ft 0kts
03-Feb-15 18:45 34.090049 -117.783313 283 1015ft 0kts
03-Feb-15 18:46 34.090049 -117.783313 283 1015ft 0kts
03-Feb-15 18:47 34.090049 -117.783313 283 1015ft 0kts
03-Feb-15 18:48 34.090049 -117.783313 283 1015ft 0kts
03-Feb-15 18:49 34.090049 -117.783313 283 1015ft 0kts
03-Feb-15 18:50 34.090049 -117.783313 283 1015ft 0kts
03-Feb-15 18:51 34.090049 -117.783313 283 1015ft 0kts
03-Feb-15 18:52 34.090091 -117.783396 320 1015ft 5kts
03-Feb-15 18:53 34.090273 -117.774891 90 1015ft 11kts
03-Feb-15 18:54 34.090578 -117.774594 16 1015ft 2kts
03-Feb-15 18:55 34.090033 -117.800561 236 1699ft 126kts
03-Feb-15 18:56 34.059421 -117.787584 146 3307ft 146kts
03-Feb-15 18:57 34.023568 -117.783931 193 5025ft 139kts
03-Feb-15 18:58 33.985548 -117.784633 176 6779ft 148kts
03-Feb-15 18:59 33.947443 -117.780193 137 8486ft 150kts
03-Feb-15 19:00 33.928805 -117.729630 109 9064ft 204kts
03-Feb-15 19:01 33.919980 -117.661630 85 9052ft 230kts
03-Feb-15 19:02 33.920834 -117.586505 89 9052ft 237kts
03-Feb-15 19:03 33.918524 -117.509066 91 9049ft 239kts
03-Feb-15 19:04 33.914753 -117.431063 92 9046ft 241kts
03-Feb-15 19:05 33.909669 -117.350819 93 9044ft 243kts
03-Feb-15 19:06 33.905926 -117.271132 92 9051ft 243kts
03-Feb-15 19:07 33.901496 -117.191278 91 9058ft 242kts
03-Feb-15 19:08 33.897719 -117.113409 92 9063ft 241kts
03-Feb-15 19:09 33.893594 -117.037498 91 9554ft 226kts
03-Feb-15 19:10 33.889774 -116.966050 91 10332ft 218kts
03-Feb-15 19:11 33.885253 -116.896478 94 10972ft 214kts
03-Feb-15 19:12 33.881084 -116.826982 91 11524ft 215kts
03-Feb-15 19:13 33.878793 -116.755599 90 12088ft 216kts
03-Feb-15 19:14 33.876335 -116.683450 92 12550ft 218kts
03-Feb-15 19:15 33.873832 -116.610677 90 12935ft 219kts
03-Feb-15 19:16 33.872388 -116.536653 89 13052ft 228kts
03-Feb-15 19:17 33.872173 -116.459090 89 13050ft 233kts
03-Feb-15 19:18 33.863911 -116.382114 99 13048ft 234kts
03-Feb-15 19:19 33.851682 -116.305223 99 13061ft 233kts
03-Feb-15 19:20 33.840652 -116.228025 102 13046ft 235kts
03-Feb-15 19:21 33.827006 -116.150835 102 13031ft 235kts
03-Feb-15 19:22 33.813893 -116.073969 101 13030ft 235kts
03-Feb-15 19:23 33.800957 -115.996941 101 13030ft 234kts
03-Feb-15 19:24 33.788078 -115.920055 101 13030ft 234kts
03-Feb-15 19:25 33.775527 -115.845249 102 13029ft 234kts
03-Feb-15 19:26 33.762692 -115.768588 102 13029ft 234kts
03-Feb-15 19:27 33.749799 -115.691846 101 13030ft 234kts
03-Feb-15 19:28 33.739914 -115.614295 95 13031ft 235kts
03-Feb-15 19:29 33.731568 -115.536421 99 13029ft 235kts
03-Feb-15 19:30 33.719931 -115.458969 101 13029ft 235kts
03-Feb-15 19:31 33.706732 -115.381555 101 13043ft 236kts
03-Feb-15 19:32 33.692131 -115.304619 102 12992ft 239kts
03-Feb-15 19:33 33.678545 -115.224360 100 12467ft 248kts
03-Feb-15 19:34 33.663840 -115.143069 101 11976ft 249kts
03-Feb-15 19:35 33.649941 -115.060677 100 10789ft 250kts
03-Feb-15 19:36 33.636574 -114.979763 100 9184ft 245kts
03-Feb-15 19:37 33.624915 -114.900423 97 7773ft 239kts
03-Feb-15 19:38 33.611523 -114.825771 103 6556ft 235kts
03-Feb-15 19:39 33.598479 -114.755542 97 5971ft 183kts
03-Feb-15 19:40 33.592199 -114.702021 97 5981ft 154kts
03-Feb-15 19:41 33.586051 -114.649498 97 5981ft 161kts
03-Feb-15 19:42 33.579683 -114.594893 97 5807ft 174kts
03-Feb-15 19:43 33.572810 -114.534994 93 5227ft 186kts
03-Feb-15 19:44 33.597436 -114.505618 22 4576ft 161kts
03-Feb-15 19:45 33.638787 -114.490301 12 3162ft 112kts
03-Feb-15 19:46 33.662688 -114.485099 5 2129ft 105kts
03-Feb-15 19:47 33.691505 -114.480949 4 1471ft 101kts
03-Feb-15 19:48 33.719611 -114.479085 4 1022ft 100kts
03-Feb-15 19:49 33.743867 -114.477261 6 294ft 15kts
03-Feb-15 19:50 33.744368 -114.477369 300 294ft 14kts

Navigation Log

Ident Type
Flight plan parsing failed, navigation log unavailable